ADDS METAR Data INFO
IDs: Format: Raw Decoded Include TAF

Data at: 1052 UTC 19 Oct 2017

KPHN 191036Z AUTO 21004KT 10SM CLR 13/07 A3003 RMK AO2
KPHN 191015Z AUTO 21005KT 10SM CLR 13/06 A3002 RMK AO2
KPHN 190955Z AUTO 20007KT 10SM CLR 14/06 A3002 RMK AO2
KPHN 190936Z AUTO 22007KT 180V250 10SM CLR 14/06 A3002 RMK AO2
KPHN 190915Z AUTO 20007G15KT 10SM CLR 14/06 A3002 RMK AO2
KPHN 190855Z AUTO 21007KT 10SM CLR 14/06 A3002 RMK AO2
KPHN 190836Z AUTO 21009G14KT 10SM CLR 14/06 A3002 RMK AO2
KPHN 190815Z AUTO 21008KT 10SM CLR 14/06 A3003 RMK AO2
KPHN 190755Z AUTO 21007KT 10SM CLR 14/06 A3004 RMK AO2
KPHN 190736Z AUTO 21007KT 10SM CLR 14/06 A3004 RMK AO2
KPHN 190715Z AUTO 21006KT 10SM CLR 14/06 A3005 RMK AO2
KPHN 190655Z AUTO 21007KT 10SM CLR 14/06 A3005 RMK AO2
KPHN 190636Z AUTO 21006KT 10SM CLR 14/06 A3005 RMK AO2
KPHN 190615Z AUTO 21006KT 10SM CLR 14/05 A3006 RMK AO2
KPHN 190555Z AUTO 21004KT 10SM CLR 14/06 A3006 RMK AO2
KPHN 190535Z AUTO 21004KT 10SM CLR 13/06 A3006 RMK AO2
KPHN 190515Z AUTO 20004KT 10SM CLR 13/07 A3007 RMK AO2
KPHN 190455Z AUTO 20004KT 10SM CLR 13/08 A3008 RMK AO2
KPHN 190435Z AUTO 21005KT 10SM CLR 13/08 A3008 RMK AO2
KPHN 190416Z AUTO 20005KT 10SM CLR 13/08 A3008 RMK AO2
KPHN 190355Z AUTO 21003KT 10SM CLR 12/08 A3009 RMK AO2
KPHN 190335Z AUTO 20004KT 10SM CLR 12/08 A3009 RMK AO2
KPHN 190316Z AUTO 20005KT 10SM CLR 12/08 A3009 RMK AO2
KPHN 190255Z AUTO 19004KT 10SM CLR 12/07 A3009 RMK AO2
KPHN 190235Z AUTO 19005KT 10SM CLR 12/07 A3009 RMK AO2
KPHN 190216Z AUTO 19004KT 10SM CLR 11/07 A3009 RMK AO2
KPHN 190155Z AUTO 19004KT 10SM CLR 12/07 A3009 RMK AO2
KPHN 190135Z AUTO 19004KT 10SM CLR 12/07 A3009 RMK AO2
KPHN 190116Z AUTO 19004KT 10SM CLR 12/07 A3009 RMK AO2
KPHN 190055Z AUTO 18005KT 10SM CLR 12/07 A3009 RMK AO2
KPHN 190035Z AUTO 19005KT 10SM CLR 13/07 A3010 RMK AO2
KPHN 190016Z AUTO 18006KT 10SM CLR 13/08 A3010 RMK AO2
KPHN 182355Z AUTO 19004KT 10SM CLR 13/07 A3011 RMK AO2
KPHN 182335Z AUTO 18005KT 10SM CLR 14/07 A3011 RMK AO2
KPHN 182316Z AUTO 18006KT 10SM CLR 15/07 A3011 RMK AO2
KPHN 182255Z AUTO 17006KT 10SM CLR 16/07 A3011 RMK AO2
KPHN 182235Z AUTO 18007KT 10SM CLR 17/07 A3011 RMK AO2
KPHN 182216Z AUTO 18008KT 10SM CLR 18/06 A3011 RMK AO2
KPHN 182155Z AUTO 19011G17KT 10SM CLR 18/06 A3012 RMK AO2
KPHN 182135Z AUTO 19008G17KT 10SM CLR 19/06 A3012 RMK AO2
KPHN 182116Z AUTO 19013G20KT 10SM CLR 19/06 A3012 RMK AO2
KPHN 182055Z AUTO 19010G21KT 10SM CLR 19/06 A3013 RMK AO2
KPHN 182035Z AUTO 19014G22KT 10SM CLR 19/06 A3014 RMK AO2
KPHN 182016Z AUTO 19013G19KT 10SM CLR 19/06 A3014 RMK AO2
KPHN 181955Z AUTO 20017G22KT 10SM CLR 19/06 A3014 RMK AO2
KPHN 181935Z AUTO 19014G21KT 10SM CLR 19/06 A3014 RMK AO2
KPHN 181916Z AUTO 19015G21KT 10SM CLR 19/06 A3015 RMK AO2
KPHN 181855Z AUTO 19013G19KT 10SM CLR 19/06 A3016 RMK AO2
KPHN 181835Z AUTO 21011G18KT 190V250 10SM CLR 19/06 A3016 RMK AO2
KPHN 181816Z AUTO 20011G21KT 10SM CLR 19/06 A3017 RMK AO2
KPHN 181755Z AUTO 19014G21KT 10SM CLR 19/05 A3018 RMK AO2
KPHN 181735Z AUTO 19012G20KT 10SM CLR 19/05 A3019 RMK AO2
KPHN 181715Z AUTO 21013G18KT 170V230 10SM CLR 19/05 A3020 RMK AO2
KPHN 181655Z AUTO 20014G20KT 10SM CLR 19/06 A3021 RMK AO2
KPHN 181636Z AUTO 20009G17KT 10SM CLR 19/06 A3022 RMK AO2
KPHN 181615Z AUTO 19011G15KT 10SM CLR 19/06 A3023 RMK AO2
KPHN 181555Z AUTO 20007G15KT 170V240 10SM CLR 18/06 A3023 RMK AO2
KPHN 181536Z AUTO 21008KT 10SM CLR 18/06 A3024 RMK AO2
KPHN 181515Z AUTO 19008KT 10SM CLR 17/06 A3024 RMK AO2
KPHN 181455Z AUTO 21004KT 10SM CLR 16/06 A3024 RMK AO2
KPHN 181436Z AUTO 20009KT 10SM CLR 16/06 A3024 RMK AO2
KPHN 181415Z AUTO 21006KT 10SM CLR 15/06 A3024 RMK AO2
KPHN 181355Z AUTO 21007KT 10SM CLR 14/06 A3024 RMK AO2
KPHN 181336Z AUTO 20005KT 10SM CLR 13/06 A3024 RMK AO2
KPHN 181315Z AUTO 21004KT 10SM CLR 12/06 A3024 RMK AO2
KPHN 181255Z AUTO 21003KT 10SM CLR 12/06 A3024 RMK AO2
KPHN 181236Z AUTO 00000KT 10SM CLR 11/06 A3024 RMK AO2
KPHN 181215Z AUTO 21003KT 10SM CLR 10/05 A3023 RMK AO2
KPHN 181155Z AUTO 00000KT 10SM CLR 09/05 A3023 RMK AO2
KPHN 181135Z AUTO 20004KT 10SM CLR 09/05 A3023 RMK AO2
KPHN 181115Z AUTO 21003KT 10SM CLR 09/05 A3023 RMK AO2
KPHN 181056Z AUTO 20004KT 10SM CLR 09/05 A3022 RMK AO2
KPHN 181035Z AUTO 20003KT 10SM CLR 09/05 A3022 RMK AO2
KPHN 181015Z AUTO 20003KT 10SM CLR 08/05 A3022 RMK AO2
KPHN 180956Z AUTO 00000KT 10SM CLR 07/05 A3022 RMK AO2
KPHN 180935Z AUTO 00000KT 10SM CLR 09/05 A3021 RMK AO2
KPHN 180915Z AUTO 20003KT 10SM CLR 10/05 A3021 RMK AO2
KPHN 180856Z AUTO 00000KT 10SM CLR 10/05 A3020 RMK AO2
KPHN 180835Z AUTO 00000KT 10SM CLR 10/05 A3020 RMK AO2
KPHN 180815Z AUTO 21003KT 10SM CLR 11/05 A3020 RMK AO2
KPHN 180756Z AUTO 00000KT 10SM CLR 11/05 A3020 RMK AO2
KPHN 180735Z AUTO 00000KT 10SM CLR 12/05 A3020 RMK AO2
KPHN 180715Z AUTO 22003KT 10SM CLR 12/05 A3019 RMK AO2
KPHN 180656Z AUTO 23003KT 10SM CLR 12/05 A3019 RMK AO2
KPHN 180635Z AUTO 21003KT 10SM CLR 12/05 A3019 RMK AO2
KPHN 180615Z AUTO 22004KT 10SM CLR 12/05 A3019 RMK AO2
KPHN 180555Z AUTO 00000KT 10SM CLR 12/05 A3019 RMK AO2
KPHN 180535Z AUTO 00000KT 10SM CLR 12/05 A3018 RMK AO2
KPHN 180516Z AUTO 22003KT 10SM CLR 12/05 A3018 RMK AO2
KPHN 180455Z AUTO 00000KT 10SM CLR 12/05 A3019 RMK AO2
KPHN 180435Z AUTO 00000KT 10SM CLR 12/05 A3018 RMK AO2
KPHN 180416Z AUTO 00000KT 10SM CLR 13/05 A3018 RMK AO2
KPHN 180355Z AUTO 22003KT 10SM CLR 13/06 A3018 RMK AO2
KPHN 180335Z AUTO 21003KT 10SM CLR 14/06 A3018 RMK AO2
KPHN 180316Z AUTO 21004KT 10SM CLR 14/06 A3018 RMK AO2
KPHN 180255Z AUTO 21004KT 10SM CLR 13/06 A3017 RMK AO2
KPHN 180235Z AUTO 22003KT 10SM CLR 14/06 A3017 RMK AO2
KPHN 180216Z AUTO 00000KT 10SM CLR 15/06 A3017 RMK AO2
KPHN 180155Z AUTO 23003KT 10SM CLR 15/06 A3016 RMK AO2
KPHN 180135Z AUTO 00000KT 10SM CLR 15/06 A3016 RMK AO2
KPHN 180116Z AUTO 21003KT 10SM CLR 15/06 A3015 RMK AO2
KPHN 180055Z AUTO 23003KT 10SM CLR 16/06 A3014 RMK AO2
KPHN 180035Z AUTO 00000KT 10SM CLR 16/06 A3014 RMK AO2
KPHN 180016Z AUTO 00000KT 10SM CLR 16/06 A3013 RMK AO2
KPHN 172355Z AUTO 22003KT 10SM CLR 17/05 A3012 RMK AO2
KPHN 172336Z AUTO 22003KT 10SM CLR 18/05 A3012 RMK AO2
KPHN 172316Z AUTO 22004KT 10SM CLR 18/05 A3011 RMK AO2
KPHN 172255Z AUTO 20004KT 10SM CLR 19/05 A3010 RMK AO2